createdAt,value
2022-09-02T00:04:05.456Z,19.34
2022-09-02T00:09:12.564Z,19.29
2022-09-02T00:14:20.635Z,19.17
2022-09-02T00:19:26.626Z,19.08
2022-09-02T00:24:32.811Z,19.05
2022-09-02T00:29:36.539Z,18.94
2022-09-02T00:34:40.299Z,18.90
2022-09-02T00:39:45.428Z,18.70
2022-09-02T00:44:49.630Z,18.68
2022-09-02T00:49:55.131Z,18.65
2022-09-02T00:55:05.135Z,18.60
2022-09-02T01:00:16.607Z,18.53
2022-09-02T01:05:23.364Z,18.43
2022-09-02T01:10:32.867Z,18.37
2022-09-02T01:15:43.946Z,18.33
2022-09-02T01:20:48.306Z,18.27
2022-09-02T01:25:53.573Z,18.19
2022-09-02T01:30:57.292Z,18.14
2022-09-02T01:36:02.972Z,18.04
2022-09-02T01:41:08.252Z,17.99
2022-09-02T01:46:12.388Z,17.99
2022-09-02T01:51:18.671Z,17.97
2022-09-02T01:56:23.981Z,17.88
2022-09-02T02:01:28.407Z,17.76
2022-09-02T02:06:33.982Z,17.78
2022-09-02T02:11:40.715Z,17.75
2022-09-02T02:16:44.683Z,17.68
2022-09-02T02:21:48.795Z,17.64
2022-09-02T02:26:53.986Z,17.63
2022-09-02T02:31:58.149Z,17.66
2022-09-02T02:37:02.864Z,17.66
2022-09-02T02:42:08.917Z,17.66
2022-09-02T02:47:12.823Z,17.68
2022-09-02T02:52:17.351Z,17.69
2022-09-02T02:57:22.487Z,17.65
2022-09-02T03:02:28.137Z,17.63
2022-09-02T03:07:32.113Z,17.64
2022-09-02T03:12:39.016Z,17.59
2022-09-02T03:17:43.254Z,17.57
2022-09-02T03:22:50.642Z,17.51
2022-09-02T03:27:56.337Z,17.46
2022-09-02T03:33:04.020Z,17.42
2022-09-02T03:38:09.383Z,17.34
2022-09-02T03:43:15.524Z,17.24
2022-09-02T03:48:19.371Z,17.19
2022-09-02T03:53:23.685Z,17.14
2022-09-02T03:58:29.934Z,17.11
2022-09-02T04:03:34.896Z,17.10
2022-09-02T04:08:38.941Z,17.07
2022-09-02T04:13:44.462Z,16.98
2022-09-02T04:18:52.082Z,16.92
2022-09-02T04:23:56.983Z,16.83
2022-09-02T04:29:02.496Z,16.76
2022-09-02T04:34:07.859Z,16.70
2022-09-02T04:39:12.019Z,16.64
2022-09-02T04:44:17.355Z,16.64
2022-09-02T04:49:22.498Z,16.67
2022-09-02T04:54:27.634Z,16.63
2022-09-02T04:59:36.377Z,16.70
2022-09-02T05:04:41.122Z,16.72
2022-09-02T05:09:45.669Z,16.67
2022-09-02T05:14:51.563Z,16.72
2022-09-02T05:19:55.971Z,16.74
2022-09-02T05:24:59.762Z,16.75
2022-09-02T05:30:07.783Z,16.75
2022-09-02T05:35:11.877Z,16.82
2022-09-02T05:40:16.148Z,16.84
2022-09-02T05:45:23.854Z,16.91
2022-09-02T05:50:29.783Z,16.89
2022-09-02T05:55:36.690Z,16.93
2022-09-02T06:00:41.865Z,16.90
2022-09-02T06:05:55.857Z,17.04
2022-09-02T06:11:01.148Z,17.06
2022-09-02T06:16:09.205Z,17.11
2022-09-02T06:21:16.300Z,17.10
2022-09-02T06:26:20.564Z,17.07
2022-09-02T06:31:26.167Z,17.08
2022-09-02T06:36:31.469Z,17.19
2022-09-02T06:41:36.188Z,17.25
2022-09-02T06:46:44.796Z,17.22
2022-09-02T06:51:50.397Z,17.29
2022-09-02T06:56:55.124Z,17.37
2022-09-02T07:02:00.933Z,17.46
2022-09-02T07:07:06.694Z,17.52
2022-09-02T07:12:11.052Z,17.64
2022-09-02T07:17:17.959Z,17.75
2022-09-02T07:22:22.892Z,17.82
2022-09-02T07:27:27.215Z,17.92
2022-09-02T07:32:33.866Z,18.01
2022-09-02T07:37:38.565Z,18.11
2022-09-02T07:42:42.631Z,18.21
2022-09-02T07:47:49.120Z,18.38
2022-09-02T07:52:53.459Z,18.53
2022-09-02T07:57:57.617Z,18.60
2022-09-02T08:03:03.268Z,18.76
2022-09-02T08:08:08.976Z,18.81
2022-09-02T08:13:12.738Z,18.91
2022-09-02T08:18:22.392Z,19.07
2022-09-02T08:23:36.576Z,19.22
2022-09-02T08:28:40.736Z,19.29
2022-09-02T08:33:45.792Z,19.49
2022-09-02T08:38:49.524Z,19.70
2022-09-02T08:43:56.420Z,19.81
2022-09-02T08:49:04.890Z,19.97
2022-09-02T08:54:15.252Z,20.12
2022-09-02T08:59:20.562Z,20.21
2022-09-02T09:04:45.714Z,20.37
2022-09-02T09:10:07.025Z,20.50
2022-09-02T09:15:14.787Z,20.68
2022-09-02T09:20:23.225Z,20.82
2022-09-02T09:25:29.824Z,20.94
2022-09-02T09:30:33.591Z,21.13
2022-09-02T09:35:50.665Z,21.22
2022-09-02T09:41:12.044Z,21.49
2022-09-02T09:46:27.022Z,21.95
2022-09-02T09:51:50.287Z,22.47
2022-09-02T09:56:55.901Z,22.66
2022-09-02T10:02:00.398Z,22.78
2022-09-02T10:07:05.739Z,23.00
2022-09-02T10:12:12.771Z,23.19
2022-09-02T10:17:40.198Z,23.49
2022-09-02T10:23:04.860Z,23.82
2022-09-02T10:28:22.968Z,24.27
2022-09-02T10:33:36.155Z,25.21
2022-09-02T10:38:45.787Z,26.19
2022-09-02T10:44:02.763Z,27.01
2022-09-02T10:49:14.660Z,27.48
2022-09-02T10:54:34.067Z,28.16
2022-09-02T10:59:45.198Z,28.41
2022-09-02T11:04:54.850Z,29.14
2022-09-02T11:10:06.767Z,29.79
2022-09-02T11:15:17.276Z,30.36
2022-09-02T11:20:31.499Z,30.68
2022-09-02T11:25:42.849Z,30.96
2022-09-02T11:30:54.673Z,31.36
2022-09-02T11:36:00.644Z,31.73
2022-09-02T11:41:36.289Z,31.66
2022-09-02T11:47:02.935Z,31.95
2022-09-02T11:52:19.760Z,31.75
2022-09-02T11:57:26.694Z,32.30
2022-09-02T12:02:38.417Z,31.99
2022-09-02T12:07:48.339Z,33.13
2022-09-02T12:13:08.054Z,33.76
2022-09-02T12:18:30.023Z,33.75
2022-09-02T12:24:07.352Z,33.71
2022-09-02T12:29:32.556Z,34.77
2022-09-02T12:34:56.695Z,34.17
2022-09-02T12:40:13.191Z,33.86
2022-09-02T12:45:29.031Z,34.17
2022-09-02T12:50:53.793Z,34.04
2022-09-02T12:56:01.734Z,33.81
2022-09-02T13:01:17.750Z,33.81
2022-09-02T13:06:31.505Z,34.30
2022-09-02T13:12:05.540Z,33.15
2022-09-02T13:17:36.059Z,33.07
2022-09-02T13:22:56.105Z,33.84
2022-09-02T13:28:23.952Z,32.83
2022-09-02T13:33:29.547Z,32.21
2022-09-02T13:38:33.527Z,32.85
2022-09-02T13:43:37.263Z,33.02
2022-09-02T13:48:42.580Z,33.20
2022-09-02T13:54:21.613Z,34.19
2022-09-02T13:59:14.900Z,34.71
2022-09-02T14:04:20.185Z,33.95
2022-09-02T14:09:27.840Z,34.54
2022-09-02T14:14:32.335Z,35.48
2022-09-02T14:19:37.379Z,34.20
2022-09-02T14:24:42.109Z,34.58
2022-09-02T14:29:48.626Z,35.59
2022-09-02T14:35:06.974Z,36.19
2022-09-02T14:40:12.932Z,35.73
2022-09-02T14:45:27.405Z,36.66
2022-09-02T14:50:36.652Z,37.37
2022-09-02T14:55:54.228Z,37.57
2022-09-02T15:01:00.493Z,37.23
2022-09-02T15:06:04.529Z,37.26
2022-09-02T15:11:09.629Z,37.59
2022-09-02T15:16:13.385Z,37.81
2022-09-02T15:21:17.372Z,37.45
2022-09-02T15:26:22.768Z,37.67
2022-09-02T15:31:26.805Z,37.55
2022-09-02T15:36:31.431Z,37.32
2022-09-02T15:41:37.510Z,37.15
2022-09-02T15:46:41.091Z,37.10
2022-09-02T15:51:45.964Z,36.09
2022-09-02T15:56:55.768Z,36.62
2022-09-02T16:02:00.585Z,36.69
2022-09-02T16:07:04.391Z,36.36
2022-09-02T16:12:10.559Z,36.45
2022-09-02T16:17:16.411Z,36.21
2022-09-02T16:22:20.213Z,36.10
2022-09-02T16:27:39.320Z,35.83
2022-09-02T16:32:43.183Z,35.31
2022-09-02T16:37:47.089Z,34.77
2022-09-02T16:42:52.304Z,34.12
2022-09-02T16:47:56.105Z,33.39
2022-09-02T16:52:59.842Z,32.83
2022-09-02T16:58:04.896Z,32.11
2022-09-02T17:03:10.771Z,31.82
2022-09-02T17:08:14.600Z,31.38
2022-09-02T17:13:19.699Z,30.84
2022-09-02T17:18:23.423Z,30.58
2022-09-02T17:23:27.132Z,30.04
2022-09-02T17:28:32.379Z,29.89
2022-09-02T17:33:36.142Z,29.66
2022-09-02T17:38:39.953Z,29.46
2022-09-02T17:43:45.174Z,29.15
2022-09-02T17:49:13.025Z,28.98
2022-09-02T17:54:14.004Z,28.92
2022-09-02T17:59:28.779Z,28.69
2022-09-02T18:04:45.812Z,28.27
2022-09-02T18:09:52.428Z,28.22
2022-09-02T18:14:59.692Z,28.07
2022-09-02T18:20:13.823Z,27.76
2022-09-02T18:25:29.405Z,27.60
2022-09-02T18:30:43.821Z,27.42
2022-09-02T18:35:55.682Z,27.26
2022-09-02T18:41:13.553Z,27.04
2022-09-02T18:46:20.580Z,26.88
2022-09-02T18:51:35.486Z,26.73
2022-09-02T18:56:48.298Z,26.50
2022-09-02T19:01:55.721Z,26.35
2022-09-02T19:07:13.710Z,26.26
2022-09-02T19:12:17.689Z,26.07
2022-09-02T19:17:22.878Z,25.75
2022-09-02T19:22:28.603Z,25.68
2022-09-02T19:27:36.515Z,25.56
2022-09-02T19:32:44.747Z,25.40
2022-09-02T19:37:51.603Z,25.09
2022-09-02T19:42:55.823Z,25.11
2022-09-02T19:48:06.956Z,24.92
2022-09-02T19:53:17.278Z,24.83
2022-09-02T19:58:21.139Z,24.60
2022-09-02T20:03:26.331Z,24.43
2022-09-02T20:08:31.027Z,24.27
2022-09-02T20:13:40.717Z,24.15
2022-09-02T20:18:48.261Z,24.01
2022-09-02T20:23:53.874Z,23.92
2022-09-02T20:29:14.863Z,23.79
2022-09-02T20:34:37.037Z,23.62
2022-09-02T20:39:53.836Z,23.45
2022-09-02T20:45:05.251Z,23.36
2022-09-02T20:50:37.956Z,23.22
2022-09-02T20:55:49.090Z,23.11
2022-09-02T21:01:06.446Z,23.04
2022-09-02T21:06:12.247Z,22.88
2022-09-02T21:11:16.925Z,22.90
2022-09-02T21:16:25.086Z,22.74
2022-09-02T21:21:36.491Z,22.71
2022-09-02T21:26:48.315Z,22.51
2022-09-02T21:31:59.783Z,22.45
2022-09-02T21:37:05.723Z,22.36
2022-09-02T21:42:21.681Z,22.24
2022-09-02T21:47:32.196Z,22.22
2022-09-02T21:52:49.818Z,22.16
2022-09-02T21:58:18.824Z,22.06
2022-09-02T22:03:40.197Z,21.91
2022-09-02T22:08:51.947Z,21.84
2022-09-02T22:13:59.263Z,21.73
2022-09-02T22:19:10.132Z,21.61
2022-09-02T22:24:16.948Z,21.54
2022-09-02T22:29:28.630Z,21.56
2022-09-02T22:34:39.048Z,21.33
2022-09-02T22:39:50.025Z,21.25
2022-09-02T22:45:19.726Z,21.10
2022-09-02T22:50:45.377Z,21.16
2022-09-02T22:56:01.375Z,20.97
2022-09-02T23:01:15.811Z,20.92
2022-09-02T23:06:26.730Z,20.86
2022-09-02T23:11:40.839Z,20.78
2022-09-02T23:17:10.153Z,20.72
2022-09-02T23:22:22.175Z,20.57
2022-09-02T23:27:34.435Z,20.50
2022-09-02T23:32:55.786Z,20.37
2022-09-02T23:38:09.878Z,20.33
2022-09-02T23:43:18.206Z,20.24
2022-09-02T23:48:29.686Z,20.21
2022-09-02T23:53:41.925Z,20.08
2022-09-02T23:59:05.229Z,20.04
